Time;durP1;ratioP1;P1;durP2;ratioP2;P2;SDS_P1;SDS_P2;PMS_P1;PMS_P2;Temp;Humidity;BMP_temperature;BMP_pressure;BME280_temperature;BME280_humidity;BME280_pressure;Samples;Min_cycle;Max_cycle;Signal;HPM_P1;HPM_P2
2019/11/24 00:02:20;;;;;;;1.7;0.9;;;;;;;12.58;51.64453;922.6156;;;;
2019/11/24 00:04:49;;;;;;;0.6;0.5;;;;;;;12.52;51.82129;922.6906;;;;
2019/11/24 00:07:18;;;;;;;2.8;0.8;;;;;;;12.62;51.30566;922.5728;;;;
2019/11/24 00:09:44;;;;;;;1.5;0.6;;;;;;;12.77;50.56641;922.6472;;;;
2019/11/24 00:12:09;;;;;;;2.9;0.4;;;;;;;12.78;50.11914;922.6358;;;;
2019/11/24 00:14:42;;;;;;;0.5;0.4;;;;;;;13.02;49.10156;922.5323;;;;
2019/11/24 00:17:06;;;;;;;1;0.5;;;;;;;13.27;47.56738;922.5272;;;;
2019/11/24 00:19:36;;;;;;;1.4;0.5;;;;;;;13.38;47.87793;922.5946;;;;
2019/11/24 00:22:19;;;;;;;1.6;0.8;;;;;;;13.65;46.28711;922.6902;;;;
2019/11/24 00:24:52;;;;;;;1.4;0.8;;;;;;;13.58;47.44141;922.7422;;;;
2019/11/24 00:29:46;;;;;;;2;0.8;;;;;;;13.07;50.50879;922.6428;;;;
2019/11/24 00:32:13;;;;;;;1.1;0.7;;;;;;;12.88;51.30078;922.7097;;;;
2019/11/24 00:37:11;;;;;;;0.9;0.6;;;;;;;12.92;50.23828;922.8102;;;;
2019/11/24 00:39:40;;;;;;;0.9;0.4;;;;;;;13.09;48.96094;922.6872;;;;
2019/11/24 00:42:04;;;;;;;1;0.5;;;;;;;13.27;48.45215;922.652;;;;
2019/11/24 00:44:36;;;;;;;0.7;0.5;;;;;;;13.35;48.61035;922.7609;;;;
2019/11/24 00:46:59;;;;;;;2.8;0.6;;;;;;;13.31;49.70898;922.6422;;;;
2019/11/24 00:49:31;;;;;;;1.6;1;;;;;;;13.2;50.3623;922.7781;;;;
2019/11/24 00:52:02;;;;;;;1;0.8;;;;;;;13.12;51.04199;922.6393;;;;
2019/11/24 00:54:33;;;;;;;2.9;0.8;;;;;;;13.2;50.79883;922.5608;;;;
2019/11/24 00:56:56;;;;;;;2.2;0.9;;;;;;;13.08;50.38379;922.6858;;;;
2019/11/24 00:59:21;;;;;;;1.2;0.6;;;;;;;12.88;51.02539;922.6753;;;;
2019/11/24 01:02:21;;;;;;;1.3;0.5;;;;;;;12.88;50.81836;922.6817;;;;
2019/11/24 01:05:23;;;;;;;1.1;0.7;;;;;;;12.98;51.03809;922.5402;;;;
2019/11/24 01:07:49;;;;;;;1.5;0.9;;;;;;;13.03;50.72266;922.579;;;;
2019/11/24 01:10:20;;;;;;;1.9;0.7;;;;;;;13.08;51.11816;922.5793;;;;
2019/11/24 01:12:46;;;;;;;1.8;0.8;;;;;;;13.06;51.47266;922.608;;;;
2019/11/24 01:15:12;;;;;;;2.5;0.8;;;;;;;12.89;51.13184;922.6342;;;;
2019/11/24 01:17:38;;;;;;;1.4;0.6;;;;;;;12.91;50.70703;922.7569;;;;
2019/11/24 01:20:02;;;;;;;1.5;0.7;;;;;;;12.92;50.58301;922.7645;;;;
2019/11/24 01:22:27;;;;;;;1.9;0.5;;;;;;;12.99;49.09863;922.69;;;;
2019/11/24 01:24:56;;;;;;;1.7;0.4;;;;;;;13.16;49.49609;922.7109;;;;
2019/11/24 01:27:22;;;;;;;6.8;2.9;;;;;;;13.23;49.40137;922.7383;;;;
2019/11/24 01:29:47;;;;;;;4.2;1.6;;;;;;;13.05;50.66699;922.725;;;;
2019/11/24 01:32:24;;;;;;;1.2;0.6;;;;;;;12.9;51.24707;922.7164;;;;
2019/11/24 01:34:47;;;;;;;3.8;0.4;;;;;;;12.84;51.95117;922.7745;;;;
2019/11/24 01:37:11;;;;;;;1.9;0.5;;;;;;;12.83;51.7666;922.6926;;;;
2019/11/24 01:39:46;;;;;;;1;0.5;;;;;;;12.85;51.45898;922.7424;;;;
2019/11/24 01:42:17;;;;;;;1.1;0.5;;;;;;;12.7;51.75098;922.6569;;;;
2019/11/24 01:44:31;;;;;;;0.7;0.4;;;;;;;12.73;51.33008;922.6683;;;;
2019/11/24 01:46:51;;;;;;;0.7;0.4;;;;;;;12.91;50.22656;922.7599;;;;
2019/11/24 01:49:18;;;;;;;0.7;0.4;;;;;;;12.98;49.83203;922.7845;;;;
2019/11/24 01:51:46;;;;;;;0.6;0.4;;;;;;;13.08;49.09766;922.8608;;;;
2019/11/24 01:54:11;;;;;;;1.5;0.4;;;;;;;13.18;49.69434;922.7634;;;;
2019/11/24 01:56:38;;;;;;;0.9;0.3;;;;;;;13.26;49.15234;922.7905;;;;
2019/11/24 01:59:03;;;;;;;0.3;0.3;;;;;;;13.3;48.9502;922.782;;;;
2019/11/24 02:01:27;;;;;;;1;0.4;;;;;;;13.22;49.69922;922.9153;;;;
2019/11/24 02:04:01;;;;;;;1.1;0.3;;;;;;;13.1;50.15625;922.8067;;;;
2019/11/24 02:06:32;;;;;;;1.1;0.4;;;;;;;13.07;49.84277;922.7243;;;;
2019/11/24 02:09:17;;;;;;;0.8;0.4;;;;;;;13.06;50.4834;922.7662;;;;
2019/11/24 02:11:47;;;;;;;1.9;0.4;;;;;;;12.9;51.04004;922.9152;;;;
2019/11/24 02:14:20;;;;;;;1.8;0.4;;;;;;;12.89;50.47754;922.8674;;;;
2019/11/24 02:16:52;;;;;;;1.8;0.5;;;;;;;13.06;49.88672;922.8989;;;;
2019/11/24 02:19:20;;;;;;;1.3;0.3;;;;;;;13.14;49.36816;922.9559;;;;
2019/11/24 02:21:47;;;;;;;1.2;0.3;;;;;;;13.18;48.85547;922.9689;;;;
2019/11/24 02:24:19;;;;;;;0.6;0.4;;;;;;;13.26;49.27832;922.944;;;;
2019/11/24 02:26:45;;;;;;;0.9;0.4;;;;;;;13.18;50.07324;922.9841;;;;
2019/11/24 02:29:16;;;;;;;1.3;0.6;;;;;;;13.15;49.31152;923.0397;;;;
2019/11/24 02:31:40;;;;;;;0.6;0.2;;;;;;;13.25;48.49609;922.988;;;;
2019/11/24 02:34:09;;;;;;;0.2;0.2;;;;;;;13.39;48.29297;922.9533;;;;
2019/11/24 02:36:37;;;;;;;1.1;0.5;;;;;;;13.53;47.9873;922.9387;;;;
2019/11/24 02:39:06;;;;;;;0.8;0.3;;;;;;;13.75;47.96484;922.9802;;;;
2019/11/24 02:41:38;;;;;;;0.8;0.5;;;;;;;13.76;49.39258;923.0265;;;;
2019/11/24 02:44:02;;;;;;;0.5;0.4;;;;;;;13.46;48.92188;923.1803;;;;
2019/11/24 02:46:37;;;;;;;0.6;0.5;;;;;;;13.38;49.31543;923.2692;;;;
2019/11/24 02:49:01;;;;;;;1.6;0.4;;;;;;;13.4;49.43262;923.2239;;;;
2019/11/24 02:51:31;;;;;;;2.1;0.4;;;;;;;13.45;49.64453;923.1255;;;;
2019/11/24 02:53:56;;;;;;;0.7;0.3;;;;;;;13.52;48.95117;923.2253;;;;
2019/11/24 02:56:24;;;;;;;1.1;0.4;;;;;;;13.6;50.14551;923.3047;;;;
2019/11/24 02:58:50;;;;;;;1;0.5;;;;;;;13.45;51.27637;923.356;;;;
2019/11/24 03:01:18;;;;;;;1;0.4;;;;;;;13.18;52.30176;923.525;;;;
2019/11/24 03:03:47;;;;;;;1.6;0.5;;;;;;;13.11;52.17871;923.5496;;;;
2019/11/24 03:08:46;;;;;;;1.4;0.6;;;;;;;13.11;52.23633;923.584;;;;
2019/11/24 03:13:43;;;;;;;2;0.5;;;;;;;12.69;54.1582;923.6675;;;;
2019/11/24 03:16:09;;;;;;;0.7;0.4;;;;;;;12.76;52.67676;923.5644;;;;
2019/11/24 03:18:41;;;;;;;0.5;0.4;;;;;;;12.82;52.45508;923.6248;;;;
2019/11/24 03:21:11;;;;;;;0.8;0.5;;;;;;;12.93;52.59277;923.6743;;;;
2019/11/24 03:23:37;;;;;;;0.8;0.4;;;;;;;12.96;52.88379;923.7701;;;;
2019/11/24 03:26:02;;;;;;;1.2;0.6;;;;;;;13.01;52.98145;923.7244;;;;
2019/11/24 03:28:28;;;;;;;0.7;0.4;;;;;;;12.92;53.1084;923.8215;;;;
2019/11/24 03:30:55;;;;;;;1.9;0.4;;;;;;;12.79;53.54102;923.7467;;;;
2019/11/24 03:33:18;;;;;;;2.2;0.4;;;;;;;12.73;53.78613;923.6992;;;;
2019/11/24 03:35:52;;;;;;;2.1;0.5;;;;;;;12.66;53.98438;923.6959;;;;
2019/11/24 03:41:20;;;;;;;3.8;0.8;;;;;;;12.53;55.53809;923.8217;;;;
2019/11/24 03:43:49;;;;;;;1.6;0.7;;;;;;;12.48;56.54199;923.7978;;;;
2019/11/24 03:46:14;;;;;;;3.2;0.9;;;;;;;12.52;55.88184;923.8569;;;;
2019/11/24 03:48:43;;;;;;;3.7;0.7;;;;;;;12.34;55.77832;924.0016;;;;
2019/11/24 03:51:07;;;;;;;1.7;0.6;;;;;;;12.2;56.16113;923.9724;;;;
2019/11/24 03:53:38;;;;;;;1.1;0.4;;;;;;;12.06;56.42969;923.9639;;;;
2019/11/24 03:56:01;;;;;;;2.3;0.5;;;;;;;12.06;56.5332;924.0645;;;;
2019/11/24 03:58:28;;;;;;;0.9;0.4;;;;;;;12.1;55.72559;924.0436;;;;
2019/11/24 04:02:37;;;;;;;2.3;0.6;;;;;;;11.83;56.50391;924.074;;;;
2019/11/24 04:05:07;;;;;;;2.1;0.5;;;;;;;11.89;56.60254;924.0442;;;;
2019/11/24 04:07:28;;;;;;;0.7;0.5;;;;;;;11.89;56.44141;924.0435;;;;
2019/11/24 04:09:55;;;;;;;3.6;0.7;;;;;;;11.89;58.125;923.9931;;;;
2019/11/24 04:12:21;;;;;;;1;0.6;;;;;;;11.83;58.80566;924.0851;;;;
2019/11/24 04:14:54;;;;;;;4.2;0.9;;;;;;;11.77;59.31055;924.2141;;;;
2019/11/24 04:17:21;;;;;;;12.4;9.9;;;;;;;11.79;58.31836;924.3049;;;;
2019/11/24 04:19:49;;;;;;;2.8;2;;;;;;;11.61;58.88965;924.2886;;;;
2019/11/24 04:22:15;;;;;;;4.7;3.8;;;;;;;11.59;59.17383;924.2128;;;;
2019/11/24 04:24:43;;;;;;;4;3.2;;;;;;;11.5;59.19531;924.2416;;;;
2019/11/24 04:27:06;;;;;;;4.9;3;;;;;;;11.5;59.61816;924.1905;;;;
2019/11/24 04:30:14;;;;;;;2.6;1.1;;;;;;;11.52;59.47363;924.2349;;;;
2019/11/24 04:32:44;;;;;;;3.1;1.5;;;;;;;11.52;59.05957;924.1512;;;;
2019/11/24 04:35:10;;;;;;;3.1;1.5;;;;;;;11.25;59.20605;924.1394;;;;
2019/11/24 04:38:13;;;;;;;3.9;1.9;;;;;;;11.35;59.47266;924.2302;;;;
2019/11/24 04:40:50;;;;;;;4.8;1.6;;;;;;;11.47;61.39941;924.4063;;;;
2019/11/24 04:43:13;;;;;;;3.7;1.2;;;;;;;11.28;60.63965;924.4106;;;;
2019/11/24 04:46:42;;;;;;;1.3;1;;;;;;;11.31;60.66699;924.3194;;;;
2019/11/24 04:49:26;;;;;;;2;1.1;;;;;;;11.04;60.83496;924.3583;;;;
2019/11/24 04:52:18;;;;;;;3.1;0.8;;;;;;;10.73;61.67188;924.4959;;;;
2019/11/24 04:55:10;;;;;;;4.2;0.9;;;;;;;10.73;61.88965;924.3868;;;;
2019/11/24 05:00:04;;;;;;;2.1;0.9;;;;;;;10.96;63.86523;924.5686;;;;
2019/11/24 05:04:43;;;;;;;1.9;1.1;;;;;;;10.88;62.27637;924.5848;;;;
2019/11/24 05:07:14;;;;;;;2.8;1.2;;;;;;;10.95;62.29688;924.6508;;;;
2019/11/24 05:09:42;;;;;;;2.7;1.1;;;;;;;10.84;62.46387;924.6778;;;;
2019/11/24 05:12:12;;;;;;;2.6;1.4;;;;;;;10.83;62.54297;924.6365;;;;
2019/11/24 05:14:38;;;;;;;4.9;1.7;;;;;;;10.8;62.56152;924.6199;;;;
2019/11/24 05:17:04;;;;;;;2.5;1.5;;;;;;;10.85;62.44238;924.6682;;;;
2019/11/24 05:19:29;;;;;;;3.1;1.6;;;;;;;10.88;62.61816;924.6892;;;;
2019/11/24 05:21:59;;;;;;;3.7;1.9;;;;;;;10.97;62.66504;924.5247;;;;
2019/11/24 05:24:25;;;;;;;2.7;1.3;;;;;;;10.9;62.74707;924.5248;;;;
2019/11/24 05:26:57;;;;;;;2.7;1.2;;;;;;;10.64;63.23438;924.6228;;;;
2019/11/24 05:29:28;;;;;;;2;1.1;;;;;;;10.7;63.17383;924.7575;;;;
2019/11/24 05:31:53;;;;;;;2.2;1.3;;;;;;;10.74;61.83301;924.721;;;;
2019/11/24 05:34:22;;;;;;;1.9;0.9;;;;;;;10.79;60.73145;924.675;;;;
2019/11/24 05:36:49;;;;;;;2.6;1.1;;;;;;;10.95;60.96094;924.6858;;;;
2019/11/24 05:39:15;;;;;;;2.3;0.8;;;;;;;11.05;59.41797;924.8091;;;;
2019/11/24 05:41:42;;;;;;;2.2;0.9;;;;;;;11.2;60.61621;924.7693;;;;
2019/11/24 05:44:08;;;;;;;2.5;1.1;;;;;;;11.24;59.51465;924.7857;;;;
2019/11/24 05:46:41;;;;;;;2.4;1.2;;;;;;;11.4;59.73047;924.7219;;;;
2019/11/24 05:49:11;;;;;;;5.1;1.9;;;;;;;11.39;60.16504;924.8384;;;;
2019/11/24 05:51:40;;;;;;;3.2;1.3;;;;;;;11.21;60.21875;924.8775;;;;
2019/11/24 05:54:03;;;;;;;4.9;2;;;;;;;11.13;59.97852;924.9083;;;;
2019/11/24 05:56:28;;;;;;;4.7;2;;;;;;;11.18;60.52246;924.9362;;;;
2019/11/24 05:58:53;;;;;;;5.3;2.2;;;;;;;11.24;60.9541;924.9905;;;;
2019/11/24 06:01:21;;;;;;;5.7;2.3;;;;;;;11.13;61.44238;924.9783;;;;
2019/11/24 06:03:49;;;;;;;4.3;1.9;;;;;;;11.06;60.83789;924.9681;;;;
2019/11/24 06:06:17;;;;;;;8.1;3;;;;;;;11.01;60.24805;925.0203;;;;
2019/11/24 06:08:40;;;;;;;10.7;3.7;;;;;;;11.18;60.59082;925.1752;;;;
2019/11/24 06:11:03;;;;;;;7;3.5;;;;;;;11.24;61.20703;925.2191;;;;
2019/11/24 06:13:34;;;;;;;3.6;2.6;;;;;;;11.15;61.60547;925.2743;;;;
2019/11/24 06:16:00;;;;;;;3.4;1.9;;;;;;;11.06;61.90234;925.4014;;;;
2019/11/24 06:18:24;;;;;;;3.6;1.9;;;;;;;11.05;61.50977;925.4175;;;;
2019/11/24 06:20:52;;;;;;;5;2;;;;;;;11.03;61.81836;925.3883;;;;
2019/11/24 06:23:31;;;;;;;5;1.9;;;;;;;11.12;61.45215;925.387;;;;
2019/11/24 06:26:06;;;;;;;6.6;2;;;;;;;11.2;61.37109;925.4266;;;;
2019/11/24 06:28:34;;;;;;;5.1;2.4;;;;;;;10.96;62.90527;925.5474;;;;
2019/11/24 06:31:17;;;;;;;4.3;2.4;;;;;;;10.93;61.54102;925.6083;;;;
2019/11/24 06:33:47;;;;;;;6.1;2.9;;;;;;;10.98;61.45508;925.5089;;;;
2019/11/24 06:36:15;;;;;;;5;1.5;;;;;;;10.92;59.82324;925.6053;;;;
2019/11/24 06:38:43;;;;;;;1.8;1;;;;;;;11.11;58.87988;925.5799;;;;
2019/11/24 06:41:10;;;;;;;3.8;1.4;;;;;;;11.3;59.09863;925.5953;;;;
2019/11/24 06:43:39;;;;;;;5.1;1.7;;;;;;;11.43;58.85352;925.5817;;;;
2019/11/24 06:46:05;;;;;;;3.3;1.4;;;;;;;11.51;58.48633;925.7145;;;;
2019/11/24 06:48:32;;;;;;;2.7;1.2;;;;;;;11.55;58.53809;925.6565;;;;
2019/11/24 06:50:56;;;;;;;2.9;1.1;;;;;;;11.58;58.20996;925.6568;;;;
2019/11/24 06:53:22;;;;;;;5.9;1.6;;;;;;;11.61;58.72852;925.8225;;;;
2019/11/24 06:55:46;;;;;;;1.5;1.1;;;;;;;11.67;58.3252;925.8208;;;;
2019/11/24 06:58:13;;;;;;;3;1.1;;;;;;;11.69;59.44824;925.795;;;;
2019/11/24 07:00:47;;;;;;;2.5;1.2;;;;;;;11.76;59.12598;925.7302;;;;
2019/11/24 07:03:04;;;;;;;1.7;1;;;;;;;11.88;57.78027;925.6953;;;;
2019/11/24 07:05:45;;;;;;;6.3;1.3;;;;;;;12;57.61328;925.691;;;;
2019/11/24 07:08:23;;;;;;;11.8;1.8;;;;;;;11.96;58.38672;925.6789;;;;
2019/11/24 07:10:51;;;;;;;3.9;1.5;;;;;;;11.86;58.88965;925.8137;;;;
2019/11/24 07:13:28;;;;;;;3;1.6;;;;;;;11.73;59.70801;925.6867;;;;
2019/11/24 07:16:10;;;;;;;2.6;1.8;;;;;;;11.78;58.91211;925.7004;;;;
2019/11/24 07:18:19;;;;;;;3.3;1.6;;;;;;;11.7;59.46387;925.739;;;;
2019/11/24 07:20:45;;;;;;;3.4;1.4;;;;;;;11.68;58.95605;925.748;;;;
2019/11/24 07:23:15;;;;;;;5.1;1.5;;;;;;;11.78;59.20996;925.7322;;;;
2019/11/24 07:25:49;;;;;;;4.1;1.8;;;;;;;11.83;59.14844;925.7639;;;;
2019/11/24 07:28:15;;;;;;;4;1.8;;;;;;;11.89;58.45801;925.7278;;;;
2019/11/24 07:31:13;;;;;;;5.3;2.2;;;;;;;11.9;57.73828;925.7397;;;;
2019/11/24 07:33:04;;;;;;;4.6;2;;;;;;;11.68;58.08594;925.7576;;;;
2019/11/24 07:35:30;;;;;;;1.9;1.2;;;;;;;11.85;57.67383;925.7676;;;;
2019/11/24 07:37:58;;;;;;;2.4;1.2;;;;;;;12.33;55.84668;925.788;;;;
2019/11/24 07:40:24;;;;;;;1.9;1;;;;;;;12.69;53.44727;925.8733;;;;
2019/11/24 07:43:09;;;;;;;1.7;1;;;;;;;12.87;52.78125;925.8269;;;;
2019/11/24 07:45:36;;;;;;;2;1;;;;;;;13.02;52.79883;925.9146;;;;
2019/11/24 07:48:04;;;;;;;2.6;0.9;;;;;;;13.3;52.65039;925.9789;;;;
2019/11/24 07:50:35;;;;;;;1.4;1;;;;;;;13.41;51.7207;926.007;;;;
2019/11/24 07:53:01;;;;;;;3.6;1.8;;;;;;;13.46;51.92188;926.0229;;;;
2019/11/24 07:55:30;;;;;;;2.9;1.2;;;;;;;13.34;52.43652;926.0667;;;;
2019/11/24 07:57:57;;;;;;;5.2;1.3;;;;;;;13.39;52.94727;926.021;;;;
2019/11/24 08:00:25;;;;;;;3.4;1.2;;;;;;;13.38;52.44238;926.0739;;;;
2019/11/24 08:03:12;;;;;;;2.9;1.9;;;;;;;13.24;52.32129;926.0641;;;;
2019/11/24 08:05:49;;;;;;;4;1.5;;;;;;;13.04;52.79102;926.046;;;;
2019/11/24 08:08:16;;;;;;;3.5;1.1;;;;;;;13.01;52.69629;926.1241;;;;
2019/11/24 08:10:48;;;;;;;3.9;1.5;;;;;;;12.96;52.84961;926.1295;;;;
2019/11/24 08:13:49;;;;;;;2.7;0.9;;;;;;;13.12;53.53516;926.154;;;;
2019/11/24 08:16:16;;;;;;;1.1;0.7;;;;;;;13.16;53.55078;926.2227;;;;
2019/11/24 08:21:14;;;;;;;4.7;0.7;;;;;;;13.2;52.65039;926.3914;;;;
2019/11/24 08:23:45;;;;;;;1.1;0.6;;;;;;;13.35;52.61035;926.3408;;;;
2019/11/24 08:26:12;;;;;;;2.9;0.8;;;;;;;13.35;52.4043;926.3608;;;;
2019/11/24 08:28:39;;;;;;;2.6;0.8;;;;;;;13.33;52.73438;926.2941;;;;
2019/11/24 08:31:04;;;;;;;3.7;1.4;;;;;;;13.23;52.23926;926.3442;;;;
2019/11/24 08:33:35;;;;;;;1.8;1.4;;;;;;;13.24;52.0791;926.3839;;;;
2019/11/24 08:36:04;;;;;;;2.8;1.3;;;;;;;13.3;52.27051;926.3644;;;;
2019/11/24 08:38:30;;;;;;;4.6;2.6;;;;;;;13.42;52.14648;926.4637;;;;
2019/11/24 08:41:00;;;;;;;7.3;2.3;;;;;;;13.54;52.17285;926.4819;;;;
2019/11/24 08:43:24;;;;;;;4.4;1.1;;;;;;;13.63;52.41309;926.3549;;;;
2019/11/24 08:45:53;;;;;;;1.7;1;;;;;;;13.71;51.79102;926.4171;;;;
2019/11/24 08:48:23;;;;;;;2.7;0.9;;;;;;;13.64;51.32227;926.4081;;;;
2019/11/24 08:50:51;;;;;;;3;0.8;;;;;;;13.61;51.35352;926.4451;;;;
2019/11/24 08:53:23;;;;;;;2.4;1.1;;;;;;;13.71;50.97461;926.4905;;;;
2019/11/24 08:55:46;;;;;;;3.2;1.1;;;;;;;13.66;51.22168;926.5028;;;;
2019/11/24 08:58:14;;;;;;;3.8;1.5;;;;;;;13.77;51.08398;926.6501;;;;
2019/11/24 09:00:40;;;;;;;3;1.1;;;;;;;13.9;50.82324;926.6924;;;;
2019/11/24 09:03:07;;;;;;;7.9;1.7;;;;;;;14.19;51.01758;926.7031;;;;
2019/11/24 09:05:35;;;;;;;4;1;;;;;;;14.23;50.2627;926.7408;;;;
2019/11/24 09:08:07;;;;;;;3.9;1;;;;;;;14.39;49.66016;926.7522;;;;
2019/11/24 09:10:34;;;;;;;3.4;1.1;;;;;;;14.5;49.26953;926.7693;;;;
2019/11/24 09:12:59;;;;;;;8.2;3;;;;;;;14.43;49.30762;926.8287;;;;
2019/11/24 09:15:29;;;;;;;5.7;2.1;;;;;;;14.34;49.34277;926.8223;;;;
2019/11/24 09:17:54;;;;;;;5;1.7;;;;;;;14.18;50.11914;926.8193;;;;
2019/11/24 09:20:26;;;;;;;3.5;1.2;;;;;;;14.05;50.62207;926.8127;;;;
2019/11/24 09:22:49;;;;;;;2.8;1.4;;;;;;;14.03;50.48145;926.8586;;;;
2019/11/24 09:25:14;;;;;;;2.4;1.2;;;;;;;14.04;50.39063;926.9042;;;;
2019/11/24 09:27:41;;;;;;;3;1.4;;;;;;;14.17;49.90039;926.8898;;;;
2019/11/24 09:30:06;;;;;;;3.4;2;;;;;;;14.14;49.70117;926.8906;;;;
2019/11/24 09:32:39;;;;;;;2.9;1.9;;;;;;;14.26;49.77246;926.9233;;;;
2019/11/24 09:35:03;;;;;;;2.3;1.2;;;;;;;14.39;49.76465;926.9659;;;;
2019/11/24 09:37:33;;;;;;;2.4;1;;;;;;;14.45;49.54004;926.9155;;;;
2019/11/24 09:40:41;;;;;;;2.4;0.9;;;;;;;14.53;49.49219;926.9224;;;;
2019/11/24 09:43:11;;;;;;;3.6;1.6;;;;;;;14.53;49.3877;926.9129;;;;
2019/11/24 09:45:42;;;;;;;8.1;2;;;;;;;14.66;49.64453;926.9501;;;;
2019/11/24 09:48:14;;;;;;;3.4;1.4;;;;;;;14.82;49.0625;926.9272;;;;
2019/11/24 09:50:39;;;;;;;3.1;1.2;;;;;;;14.93;48.30176;926.9469;;;;
2019/11/24 09:53:13;;;;;;;4.1;1.9;;;;;;;15.09;48.06641;926.883;;;;
2019/11/24 09:55:44;;;;;;;2.2;1.1;;;;;;;15.17;47.47461;926.839;;;;
2019/11/24 09:58:32;;;;;;;2.8;0.9;;;;;;;15.34;47.29785;926.8211;;;;
2019/11/24 10:00:58;;;;;;;2.2;0.8;;;;;;;15.54;47.33105;926.7989;;;;
2019/11/24 10:03:24;;;;;;;5.6;1.1;;;;;;;15.69;46.74609;926.7328;;;;
2019/11/24 10:05:56;;;;;;;3.9;1.7;;;;;;;15.72;46.29883;926.7374;;;;
2019/11/24 10:08:22;;;;;;;1.7;1;;;;;;;15.67;46.54785;926.7904;;;;
2019/11/24 10:11:16;;;;;;;2.6;1;;;;;;;15.68;46.38672;926.677;;;;
2019/11/24 10:13:27;;;;;;;4.7;1.1;;;;;;;15.72;46.02148;926.7576;;;;
2019/11/24 10:15:53;;;;;;;2.3;0.9;;;;;;;15.79;45.78613;926.6809;;;;
2019/11/24 10:21:19;;;;;;;1.2;0.7;;;;;;;15.83;46.27637;926.6808;;;;
2019/11/24 10:23:56;;;;;;;3.7;0.9;;;;;;;15.85;45.83887;926.6577;;;;
2019/11/24 10:26:40;;;;;;;2.4;0.8;;;;;;;15.9;45.53125;926.6258;;;;
2019/11/24 10:28:57;;;;;;;1.1;0.6;;;;;;;15.86;45.6543;926.5573;;;;
2019/11/24 10:31:30;;;;;;;2.1;1.3;;;;;;;15.92;45.56934;926.556;;;;
2019/11/24 10:33:58;;;;;;;2.5;1;;;;;;;15.88;45.61035;926.6891;;;;
2019/11/24 10:36:22;;;;;;;4;1.2;;;;;;;15.9;46.13281;926.6611;;;;
2019/11/24 10:39:15;;;;;;;3.2;1.4;;;;;;;16.03;45.62598;926.6046;;;;
2019/11/24 10:41:42;;;;;;;5;1.2;;;;;;;16.23;45.83203;926.663;;;;
2019/11/24 10:44:15;;;;;;;2;0.7;;;;;;;16.48;44.3877;926.6355;;;;
2019/11/24 10:46:39;;;;;;;2.6;1.6;;;;;;;16.53;44.19629;926.632;;;;
2019/11/24 10:49:08;;;;;;;3.1;1.4;;;;;;;16.39;44.66895;926.6088;;;;
2019/11/24 10:51:41;;;;;;;1.1;0.7;;;;;;;16.31;44.82227;926.5664;;;;
2019/11/24 10:53:55;;;;;;;3;1.4;;;;;;;16.3;45.07617;926.4953;;;;
2019/11/24 10:56:31;;;;;;;3.8;1.9;;;;;;;16.19;45.91992;926.4767;;;;
2019/11/24 10:59:01;;;;;;;3.7;1.4;;;;;;;16.36;45.72949;926.4604;;;;
2019/11/24 11:01:36;;;;;;;4.2;1.2;;;;;;;16.28;46.14941;926.3667;;;;
2019/11/24 11:04:06;;;;;;;2.7;1;;;;;;;16.31;46.04785;926.3569;;;;
2019/11/24 11:06:32;;;;;;;5.1;1;;;;;;;16.37;45.78809;926.4224;;;;
2019/11/24 11:09:11;;;;;;;2;0.9;;;;;;;16.3;45.36426;926.436;;;;
2019/11/24 11:11:49;;;;;;;1.8;0.9;;;;;;;16.21;45.67969;926.4462;;;;
2019/11/24 11:14:17;;;;;;;5.6;2.9;;;;;;;16.16;44.89941;926.493;;;;
2019/11/24 11:16:54;;;;;;;2;0.9;;;;;;;16.23;44.84766;926.3987;;;;
2019/11/24 11:19:25;;;;;;;3.8;1.1;;;;;;;16.15;45.89355;926.3887;;;;
2019/11/24 11:21:50;;;;;;;2.4;0.8;;;;;;;16.26;45.44238;926.4186;;;;
2019/11/24 11:24:31;;;;;;;2.6;1;;;;;;;16.32;45.99121;926.4264;;;;
2019/11/24 11:26:56;;;;;;;2.9;1.3;;;;;;;16.51;45.18945;926.4545;;;;
2019/11/24 11:29:29;;;;;;;3.4;1.3;;;;;;;16.86;45.07617;926.4459;;;;
2019/11/24 11:32:02;;;;;;;2.2;1.2;;;;;;;17.02;44.51172;926.4487;;;;
2019/11/24 11:34:43;;;;;;;3.3;2.2;;;;;;;17.05;44.36523;926.4078;;;;
2019/11/24 11:39:30;;;;;;;5;2;;;;;;;17.27;43.85352;926.427;;;;
2019/11/24 11:42:01;;;;;;;3.9;1.4;;;;;;;17.18;43.78711;926.4177;;;;
2019/11/24 11:44:29;;;;;;;1.6;0.9;;;;;;;17.23;42.94434;926.4341;;;;
2019/11/24 11:46:55;;;;;;;2;1;;;;;;;17.59;43.03906;926.4204;;;;
2019/11/24 11:49:22;;;;;;;3;1.2;;;;;;;17.76;42.23047;926.5616;;;;
2019/11/24 11:51:49;;;;;;;5;1.5;;;;;;;17.97;41.56641;926.4339;;;;
2019/11/24 11:54:19;;;;;;;2.7;0.8;;;;;;;18.27;40.74512;926.3481;;;;
2019/11/24 11:56:55;;;;;;;3;0.6;;;;;;;18.18;39.77246;926.2965;;;;
2019/11/24 11:59:31;;;;;;;2.6;1.4;;;;;;;18.22;40.55566;926.3353;;;;
2019/11/24 12:01:50;;;;;;;3.1;1;;;;;;;18.15;40.12988;926.3273;;;;
2019/11/24 12:04:18;;;;;;;2.6;1;;;;;;;18.29;40.58496;926.3045;;;;
2019/11/24 12:07:05;;;;;;;1.7;0.8;;;;;;;18.54;40.30566;926.4695;;;;
2019/11/24 12:09:31;;;;;;;0.9;0.5;;;;;;;18.77;39.47754;926.4473;;;;
2019/11/24 12:12:03;;;;;;;1.3;0.4;;;;;;;18.87;38.30957;926.4139;;;;
2019/11/24 12:14:46;;;;;;;1.2;0.8;;;;;;;18.65;40.72266;926.4788;;;;
2019/11/24 12:17:09;;;;;;;3.1;0.9;;;;;;;18.83;41.40332;926.4919;;;;
2019/11/24 12:19:37;;;;;;;4.2;1;;;;;;;19.21;40.83301;926.378;;;;
2019/11/24 12:22:08;;;;;;;4.8;1.5;;;;;;;19.3;40.09473;926.4204;;;;
2019/11/24 12:24:41;;;;;;;2.5;0.9;;;;;;;19.38;39.24121;926.3417;;;;
2019/11/24 12:27:14;;;;;;;1.9;0.8;;;;;;;19.62;40.19531;926.4077;;;;
2019/11/24 12:29:57;;;;;;;1.6;0.8;;;;;;;20;38.44434;926.3768;;;;
2019/11/24 12:32:24;;;;;;;2.1;0.5;;;;;;;19.67;36.10742;926.3798;;;;
2019/11/24 12:35:00;;;;;;;4.8;0.8;;;;;;;19.24;38.57715;926.4235;;;;
2019/11/24 12:37:32;;;;;;;1.6;0.5;;;;;;;19.2;38.47852;926.4478;;;;
2019/11/24 12:40:06;;;;;;;2.2;0.7;;;;;;;19.2;40.0166;926.4727;;;;
2019/11/24 12:42:41;;;;;;;1.1;0.8;;;;;;;19.31;40.45801;926.5071;;;;
2019/11/24 12:45:14;;;;;;;2.8;0.9;;;;;;;19.3;40.87598;926.4774;;;;
2019/11/24 12:47:44;;;;;;;1.8;0.9;;;;;;;19.3;40.61914;926.5228;;;;
2019/11/24 12:50:08;;;;;;;2;0.8;;;;;;;19.24;41.88477;926.522;;;;
2019/11/24 12:52:39;;;;;;;2.1;1.1;;;;;;;19.2;42.22852;926.5084;;;;
2019/11/24 12:55:05;;;;;;;1.6;0.9;;;;;;;19.27;41.8877;926.507;;;;
2019/11/24 12:57:36;;;;;;;2.4;1.1;;;;;;;19.35;41.90527;926.5745;;;;
2019/11/24 13:00:05;;;;;;;3.1;1.3;;;;;;;18.93;43.74023;926.6362;;;;
2019/11/24 13:02:34;;;;;;;2.9;1.1;;;;;;;18.86;43.84961;926.6035;;;;
2019/11/24 13:05:08;;;;;;;2.1;1;;;;;;;18.9;44.02734;926.6594;;;;
2019/11/24 13:07:40;;;;;;;2.7;1.1;;;;;;;18.9;45.16797;926.7352;;;;
2019/11/24 13:10:12;;;;;;;3.5;1.2;;;;;;;18.71;45.81152;926.7452;;;;
2019/11/24 13:12:42;;;;;;;1.7;1;;;;;;;18.49;47.24316;926.7498;;;;
2019/11/24 13:15:12;;;;;;;2.6;1.1;;;;;;;18.55;45.38867;926.8345;;;;
2019/11/24 13:17:45;;;;;;;2.9;1.2;;;;;;;18.47;46.10059;926.8186;;;;
2019/11/24 13:20:08;;;;;;;1.8;1.1;;;;;;;18.04;46.83398;926.8553;;;;
2019/11/24 13:22:34;;;;;;;5;1.3;;;;;;;17.93;47.06738;926.8185;;;;
2019/11/24 13:25:10;;;;;;;2.7;1.2;;;;;;;17.83;47.74121;926.899;;;;
2019/11/24 13:27:39;;;;;;;2.8;1.4;;;;;;;17.86;47.40723;926.9462;;;;
2019/11/24 13:30:06;;;;;;;3;1.2;;;;;;;17.8;46.82031;926.9288;;;;
2019/11/24 13:32:43;;;;;;;3;1.1;;;;;;;17.8;46.41309;927.0206;;;;
2019/11/24 13:35:12;;;;;;;4;1.1;;;;;;;17.79;46.37891;927.0645;;;;
2019/11/24 13:37:47;;;;;;;1.4;1;;;;;;;17.68;47.31934;927.0867;;;;
2019/11/24 13:40:20;;;;;;;2.4;1;;;;;;;17.62;47.37012;927.0508;;;;
2019/11/24 13:42:56;;;;;;;2.7;0.9;;;;;;;17.61;47.18359;927.1297;;;;
2019/11/24 13:45:40;;;;;;;1.5;0.9;;;;;;;17.54;46.95508;927.1323;;;;
2019/11/24 13:48:06;;;;;;;2.2;0.9;;;;;;;17.54;47.31543;927.1871;;;;
2019/11/24 13:50:39;;;;;;;2.5;1.2;;;;;;;17.57;47.08594;927.2014;;;;
2019/11/24 13:53:19;;;;;;;3.3;1.3;;;;;;;17.49;46.64844;927.2958;;;;
2019/11/24 13:55:45;;;;;;;3.5;1.2;;;;;;;17.37;47.95801;927.249;;;;
2019/11/24 13:58:22;;;;;;;3.1;1.1;;;;;;;17.33;47.66406;927.3301;;;;
2019/11/24 14:00:51;;;;;;;5.8;1.4;;;;;;;17.33;49.06738;927.2673;;;;
2019/11/24 14:03:17;;;;;;;13;2.5;;;;;;;17.15;50.80859;927.3115;;;;
2019/11/24 14:06:02;;;;;;;4.6;1.9;;;;;;;16.95;48.66504;927.2897;;;;
2019/11/24 14:08:33;;;;;;;3.3;1.4;;;;;;;16.65;50.16016;927.3519;;;;
2019/11/24 14:11:14;;;;;;;8;2.1;;;;;;;16.44;51.35156;927.3894;;;;
2019/11/24 14:14:19;;;;;;;4.7;1.6;;;;;;;16.45;51.74512;927.358;;;;
2019/11/24 14:16:44;;;;;;;7.2;1.9;;;;;;;16.29;54.04102;927.4348;;;;
2019/11/24 14:19:20;;;;;;;6.1;1.9;;;;;;;16.09;52.8252;927.4595;;;;
2019/11/24 14:21:37;;;;;;;4.9;2.1;;;;;;;15.97;52.99707;927.5067;;;;
2019/11/24 14:24:04;;;;;;;6.4;3.1;;;;;;;15.92;53.66113;927.5508;;;;
2019/11/24 14:27:22;;;;;;;9.5;4.4;;;;;;;15.8;53.01074;927.5338;;;;
2019/11/24 14:29:59;;;;;;;7.9;2.7;;;;;;;15.56;52.21875;927.567;;;;
2019/11/24 14:32:16;;;;;;;13.2;4.5;;;;;;;15.25;56.74023;927.6047;;;;
2019/11/24 14:34:42;;;;;;;6.4;2.2;;;;;;;15.06;58.99023;927.5114;;;;
2019/11/24 14:37:14;;;;;;;5.8;2.8;;;;;;;14.93;59.59277;927.5737;;;;
2019/11/24 14:39:40;;;;;;;12.9;4.9;;;;;;;15;59.30273;927.5319;;;;
2019/11/24 14:42:05;;;;;;;7.1;3.5;;;;;;;15.06;58.14746;927.666;;;;
2019/11/24 14:44:46;;;;;;;6.6;3.5;;;;;;;15.01;59.02734;927.6928;;;;
2019/11/24 14:47:05;;;;;;;12.3;4.4;;;;;;;15;59.91406;927.7275;;;;
2019/11/24 14:49:33;;;;;;;4.5;2.1;;;;;;;14.9;59.90039;927.7314;;;;
2019/11/24 14:52:04;;;;;;;4;1.8;;;;;;;14.79;60.12793;927.8308;;;;
2019/11/24 14:54:29;;;;;;;13;4.2;;;;;;;14.65;61.04297;927.8309;;;;
2019/11/24 14:56:59;;;;;;;15.5;7.8;;;;;;;14.37;61.68359;927.8322;;;;
2019/11/24 14:59:24;;;;;;;18.7;7.2;;;;;;;14.18;62.33496;927.8353;;;;
2019/11/24 15:02:03;;;;;;;8.8;3.8;;;;;;;13.96;62.47754;927.8786;;;;
2019/11/24 15:04:15;;;;;;;10;4.5;;;;;;;14.03;63.11816;927.9081;;;;
2019/11/24 15:07:18;;;;;;;9.4;3.7;;;;;;;14.11;62.5791;927.9239;;;;
2019/11/24 15:09:45;;;;;;;7.2;2.3;;;;;;;14.02;62.05957;927.9578;;;;
2019/11/24 15:12:08;;;;;;;6.9;2.8;;;;;;;13.97;61.48926;927.9361;;;;
2019/11/24 15:14:40;;;;;;;5.4;3;;;;;;;13.77;62.19629;927.959;;;;